Time,TemperatureF,DewpointF,PressureIn,WindDirection,WindDirectionDegrees,WindSpeedMPH,WindSpeedGustMPH,Humidity,HourlyPrecipIn,Conditions,Clouds,dailyrainin,SoftwareType,DateUTC
2013-04-20 00:00:00,63.6,62.1,29.57,WNW,297,0.0,6.0,95,0.16,,,0.04,Wunderground v.1.15,2013-04-20 04:00:00,
2013-04-20 00:05:00,63.6,62.1,29.56,WNW,297,0.0,6.0,95,0.16,,,0.01,Wunderground v.1.15,2013-04-20 04:05:00,
2013-04-20 00:10:00,63.6,62.4,29.58,West,264,0.0,6.0,96,1.29,,,0.05,Wunderground v.1.15,2013-04-20 04:10:00,
2013-04-20 00:15:00,63.6,62.4,29.57,West,264,0.0,6.0,96,0.40,,,0.11,Wunderground v.1.15,2013-04-20 04:15:00,
2013-04-20 00:25:00,63.7,62.5,29.56,West,265,0.0,6.0,96,0.16,,,0.13,Wunderground v.1.15,2013-04-20 04:25:00,
2013-04-20 00:30:00,63.6,62.4,29.56,West,265,0.0,6.0,96,0.12,,,0.14,Wunderground v.1.15,2013-04-20 04:30:00,
2013-04-20 00:35:00,63.6,62.7,29.56,West,265,0.0,6.0,97,0.06,,,0.14,Wunderground v.1.15,2013-04-20 04:35:00,
2013-04-20 00:45:00,63.6,62.7,29.57,East,94,0.0,6.0,97,0.00,,,0.14,Wunderground v.1.15,2013-04-20 04:45:00,
2013-04-20 00:55:00,63.6,62.7,29.56,ESE,117,0.0,6.0,97,0.00,,,0.14,Wunderground v.1.15,2013-04-20 04:55:00,
2013-04-20 01:00:00,63.5,62.6,29.55,ESE,123,0.0,6.0,97,0.00,,,0.14,Wunderground v.1.15,2013-04-20 05:00:00,
2013-04-20 01:05:00,63.3,62.4,29.56,West,264,0.0,6.0,97,0.00,,,0.14,Wunderground v.1.15,2013-04-20 05:05:00,
2013-04-20 01:15:00,63.1,62.2,29.57,West,264,0.0,6.0,97,0.00,,,0.15,Wunderground v.1.15,2013-04-20 05:15:00,
2013-04-20 01:25:00,62.9,62.0,29.56,North,360,0.0,6.0,97,0.00,,,0.15,Wunderground v.1.15,2013-04-20 05:25:00,
2013-04-20 01:35:00,62.6,62.3,29.57,North,360,0.0,6.0,99,0.00,,,0.15,Wunderground v.1.15,2013-04-20 05:35:00,
2013-04-20 01:45:00,61.1,60.0,29.57,WNW,300,1.0,6.0,96,0.00,,,0.15,Wunderground v.1.15,2013-04-20 05:45:00,
2013-04-20 01:55:00,59.9,58.8,29.57,North,360,0.0,6.0,96,0.00,,,0.15,Wunderground v.1.15,2013-04-20 05:55:00,
2013-04-20 02:05:00,59.2,58.1,29.57,North,5,0.0,6.0,96,0.00,,,0.16,Wunderground v.1.15,2013-04-20 06:05:00,
2013-04-20 02:15:00,59.0,57.9,29.57,North,9,0.0,6.0,96,0.00,,,0.16,Wunderground v.1.15,2013-04-20 06:15:00,
2013-04-20 02:25:00,58.2,57.1,29.56,SW,230,1.0,6.0,96,0.00,,,0.16,Wunderground v.1.15,2013-04-20 06:25:00,
2013-04-20 02:35:00,56.9,55.5,29.57,SW,232,1.0,6.0,95,0.00,,,0.16,Wunderground v.1.15,2013-04-20 06:35:00,
2013-04-20 02:45:00,55.8,54.4,29.58,SW,229,1.0,6.0,95,0.00,,,0.17,Wunderground v.1.15,2013-04-20 06:45:00,
2013-04-20 02:55:00,54.7,53.0,29.57,NNE,13,1.0,6.0,94,0.00,,,0.17,Wunderground v.1.15,2013-04-20 06:55:00,
2013-04-20 03:00:00,54.2,52.5,29.57,WSW,248,1.0,1.0,94,0.00,,,0.17,Wunderground v.1.15,2013-04-20 07:00:00,
2013-04-20 03:10:00,53.0,51.0,29.57,West,259,1.0,5.0,93,0.00,,,0.17,Wunderground v.1.15,2013-04-20 07:10:00,
2013-04-20 03:20:00,52.2,50.2,29.58,East,83,1.0,1.0,93,0.00,,,0.17,Wunderground v.1.15,2013-04-20 07:20:00,
2013-04-20 03:30:00,51.6,49.6,29.57,East,88,1.0,4.0,93,0.00,,,0.18,Wunderground v.1.15,2013-04-20 07:30:00,
2013-04-20 03:40:00,51.2,49.2,29.59,East,94,0.0,5.0,93,0.00,,,0.18,Wunderground v.1.15,2013-04-20 07:40:00,
2013-04-20 03:50:00,50.9,49.2,29.60,East,90,1.0,1.0,94,0.00,,,0.19,Wunderground v.1.15,2013-04-20 07:50:00,
2013-04-20 04:00:00,50.8,49.4,29.60,WSW,244,1.0,1.0,95,0.07,,,0.20,Wunderground v.1.15,2013-04-20 08:00:00,
2013-04-20 04:10:00,50.6,49.2,29.61,NNW,339,0.0,5.0,95,0.04,,,0.20,Wunderground v.1.15,2013-04-20 08:10:00,
2013-04-20 04:20:00,49.2,47.3,29.61,SSW,205,1.0,1.0,93,0.00,,,0.20,Wunderground v.1.15,2013-04-20 08:20:00,
2013-04-20 04:30:00,48.0,46.1,29.60,ENE,74,1.0,1.0,93,0.07,,,0.22,Wunderground v.1.15,2013-04-20 08:30:00,
2013-04-20 04:40:00,47.3,45.4,29.62,West,281,0.0,5.0,93,0.12,,,0.24,Wunderground v.1.15,2013-04-20 08:40:00,
2013-04-20 04:50:00,46.9,45.3,29.62,ENE,59,0.0,5.0,94,0.11,,,0.26,Wunderground v.1.15,2013-04-20 08:50:00,
2013-04-20 09:40:00,46.3,42.0,29.75,ENE,62,1.0,1.0,85,0.00,,,0.42,Wunderground v.1.15,2013-04-20 13:40:00,
2013-04-20 09:45:00,46.4,42.1,29.74,WSW,238,1.0,5.0,85,0.00,,,0.42,Wunderground v.1.15,2013-04-20 13:45:00,
2013-04-20 09:55:00,46.6,41.7,29.75,SW,234,1.0,5.0,83,0.00,,,0.42,Wunderground v.1.15,2013-04-20 13:55:00,
2013-04-20 10:05:00,47.8,42.6,29.75,SSW,203,1.0,3.0,82,0.00,,,0.42,Wunderground v.1.15,2013-04-20 14:05:00,
2013-04-20 10:15:00,49.1,42.9,29.75,SE,130,2.0,5.0,79,0.00,,,0.42,Wunderground v.1.15,2013-04-20 14:15:00,
2013-04-20 10:25:00,50.2,42.2,29.76,West,261,1.0,5.0,74,0.00,,,0.42,Wunderground v.1.15,2013-04-20 14:25:00,
2013-04-20 10:35:00,50.8,41.0,29.76,East,96,2.0,3.0,69,0.00,,,0.42,Wunderground v.1.15,2013-04-20 14:35:00,
2013-04-20 10:40:00,50.8,41.0,29.76,WSW,238,2.0,5.0,69,0.00,,,0.42,Wunderground v.1.15,2013-04-20 14:40:00,
2013-04-20 10:50:00,50.1,38.8,29.77,West,271,3.0,3.0,65,0.00,,,0.42,Wunderground v.1.15,2013-04-20 14:50:00,
2013-04-20 11:00:00,50.4,39.9,29.77,WSW,238,2.0,5.0,67,0.00,,,0.42,Wunderground v.1.15,2013-04-20 15:00:00,
2013-04-20 11:05:00,50.5,39.6,29.78,SW,232,2.0,5.0,66,0.00,,,0.42,Wunderground v.1.15,2013-04-20 15:05:00,
2013-04-20 11:15:00,51.5,39.3,29.78,West,260,2.0,5.0,63,0.00,,,0.42,Wunderground v.1.15,2013-04-20 15:15:00,
2013-04-20 11:25:00,52.2,38.3,29.78,WSW,257,2.0,7.0,59,0.00,,,0.42,Wunderground v.1.15,2013-04-20 15:25:00,
2013-04-20 11:35:00,52.3,38.8,29.79,West,280,2.0,4.0,60,0.00,,,0.42,Wunderground v.1.15,2013-04-20 15:35:00,
2013-04-20 11:45:00,52.5,37.7,29.79,ESE,107,2.0,5.0,57,0.00,,,0.42,Wunderground v.1.15,2013-04-20 15:45:00,
2013-04-20 11:50:00,53.2,39.7,29.80,ESE,102,2.0,5.0,60,0.00,,,0.42,Wunderground v.1.15,2013-04-20 15:50:00,
2013-04-20 12:00:00,53.5,36.8,29.80,West,265,3.0,3.0,53,0.00,,,0.42,Wunderground v.1.15,2013-04-20 16:00:00,
2013-04-20 12:10:00,52.8,37.5,29.80,South,171,2.0,5.0,56,0.00,,,0.42,Wunderground v.1.15,2013-04-20 16:10:00,
2013-04-20 12:15:00,53.0,38.2,29.80,South,169,1.0,5.0,57,0.00,,,0.42,Wunderground v.1.15,2013-04-20 16:15:00,
2013-04-20 12:25:00,53.0,36.8,29.81,West,260,2.0,5.0,54,0.00,,,0.42,Wunderground v.1.15,2013-04-20 16:25:00,
2013-04-20 12:35:00,52.9,36.7,29.82,ESE,113,2.0,5.0,54,0.00,,,0.42,Wunderground v.1.15,2013-04-20 16:35:00,
2013-04-20 12:40:00,52.9,36.7,29.81,NW,314,2.0,5.0,54,0.00,,,0.42,Wunderground v.1.15,2013-04-20 16:40:00,
2013-04-20 12:50:00,52.8,36.1,29.81,SW,217,2.0,2.0,53,0.00,,,0.42,Wunderground v.1.15,2013-04-20 16:50:00,
2013-04-20 13:00:00,52.6,36.4,29.82,SE,130,2.0,2.0,54,0.00,,,0.42,Wunderground v.1.15,2013-04-20 17:00:00,
2013-04-20 13:10:00,52.9,35.2,29.82,West,260,2.0,5.0,51,0.00,,,0.42,Wunderground v.1.15,2013-04-20 17:10:00,
2013-04-20 13:20:00,53.2,36.0,29.82,WSW,244,3.0,5.0,52,0.00,,,0.42,Wunderground v.1.15,2013-04-20 17:20:00,
2013-04-20 13:25:00,53.3,35.6,29.82,West,268,3.0,5.0,51,0.00,,,0.42,Wunderground v.1.15,2013-04-20 17:25:00,
2013-04-20 13:35:00,53.3,34.6,29.82,WSW,254,3.0,5.0,49,0.00,,,0.42,Wunderground v.1.15,2013-04-20 17:35:00,
2013-04-20 13:45:00,53.1,36.4,29.83,West,266,3.0,6.0,53,0.00,,,0.42,Wunderground v.1.15,2013-04-20 17:45:00,
2013-04-20 13:55:00,52.5,36.3,29.83,East,79,3.0,5.0,54,0.00,,,0.42,Wunderground v.1.15,2013-04-20 17:55:00,
2013-04-20 14:00:00,52.7,36.5,29.83,East,96,2.0,2.0,54,0.00,,,0.42,Wunderground v.1.15,2013-04-20 18:00:00,
2013-04-20 14:10:00,52.6,35.9,29.83,West,266,2.0,5.0,53,0.00,,,0.42,Wunderground v.1.15,2013-04-20 18:10:00,
2013-04-20 14:20:00,52.4,35.3,29.84,South,184,3.0,3.0,52,0.00,,,0.42,Wunderground v.1.15,2013-04-20 18:20:00,
2013-04-20 14:25:00,52.5,34.9,29.83,West,260,3.0,5.0,51,0.00,,,0.42,Wunderground v.1.15,2013-04-20 18:25:00,
2013-04-20 14:35:00,52.8,36.1,29.84,ENE,78,2.0,5.0,53,0.00,,,0.42,Wunderground v.1.15,2013-04-20 18:35:00,
2013-04-20 14:45:00,53.3,36.1,29.84,ESE,122,3.0,3.0,52,0.00,,,0.42,Wunderground v.1.15,2013-04-20 18:45:00,
2013-04-20 14:50:00,53.7,35.5,29.83,WSW,237,2.0,5.0,50,0.00,,,0.42,Wunderground v.1.15,2013-04-20 18:50:00,
2013-04-20 15:00:00,54.0,36.3,29.84,East,80,2.0,2.0,51,0.00,,,0.42,Wunderground v.1.15,2013-04-20 19:00:00,
2013-04-20 15:10:00,53.5,35.3,29.84,NE,44,1.0,1.0,50,0.00,,,0.42,Wunderground v.1.15,2013-04-20 19:10:00,
2013-04-20 15:20:00,53.1,34.4,29.85,West,263,2.0,2.0,49,0.00,,,0.42,Wunderground v.1.15,2013-04-20 19:20:00,
2013-04-20 15:30:00,53.8,35.1,29.85,West,271,2.0,5.0,49,0.00,,,0.42,Wunderground v.1.15,2013-04-20 19:30:00,
2013-04-20 15:40:00,53.8,34.0,29.86,WSW,238,2.0,5.0,47,0.00,,,0.42,Wunderground v.1.15,2013-04-20 19:40:00,
2013-04-20 15:50:00,53.7,33.9,29.86,WNW,292,1.0,1.0,47,0.00,,,0.42,Wunderground v.1.15,2013-04-20 19:50:00,
2013-04-20 16:00:00,53.3,34.1,29.86,SE,126,2.0,5.0,48,0.00,,,0.42,Wunderground v.1.15,2013-04-20 20:00:00,
2013-04-20 16:10:00,53.6,33.3,29.87,West,268,2.0,5.0,46,0.00,,,0.42,Wunderground v.1.15,2013-04-20 20:10:00,
2013-04-20 16:15:00,54.0,32.0,29.87,East,82,2.0,5.0,43,0.00,,,0.42,Wunderground v.1.15,2013-04-20 20:15:00,
2013-04-20 16:25:00,54.2,31.6,29.87,ESE,110,3.0,5.0,42,0.00,,,0.42,Wunderground v.1.15,2013-04-20 20:25:00,
2013-04-20 16:35:00,54.5,32.4,29.88,WSW,249,2.0,6.0,43,0.00,,,0.42,Wunderground v.1.15,2013-04-20 20:35:00,
2013-04-20 16:45:00,54.3,31.7,29.89,SSW,198,1.0,5.0,42,0.00,,,0.42,Wunderground v.1.15,2013-04-20 20:45:00,
2013-04-20 16:50:00,54.5,31.3,29.89,WSW,242,2.0,5.0,41,0.00,,,0.42,Wunderground v.1.15,2013-04-20 20:50:00,
2013-04-20 17:00:00,54.6,31.9,29.90,East,80,3.0,5.0,42,0.00,,,0.42,Wunderground v.1.15,2013-04-20 21:00:00,
2013-04-20 17:05:00,53.7,30.5,29.90,West,270,3.0,5.0,41,0.00,,,0.42,Wunderground v.1.15,2013-04-20 21:05:00,
2013-04-20 17:15:00,53.7,31.1,29.91,West,276,2.0,9.0,42,0.00,,,0.42,Wunderground v.1.15,2013-04-20 21:15:00,
2013-04-20 17:25:00,53.1,31.7,29.92,WSW,240,3.0,5.0,44,0.00,,,0.42,Wunderground v.1.15,2013-04-20 21:25:00,
2013-04-20 17:35:00,52.8,31.5,29.92,West,266,1.0,10.0,44,0.00,,,0.42,Wunderground v.1.15,2013-04-20 21:35:00,
2013-04-20 17:45:00,52.4,31.1,29.93,SSE,149,1.0,5.0,44,0.00,,,0.42,Wunderground v.1.15,2013-04-20 21:45:00,
2013-04-20 17:50:00,52.5,31.2,29.93,East,80,1.0,5.0,44,0.00,,,0.42,Wunderground v.1.15,2013-04-20 21:50:00,
2013-04-20 18:00:00,52.6,31.3,29.94,WNW,287,2.0,2.0,44,0.00,,,0.42,Wunderground v.1.15,2013-04-20 22:00:00,
2013-04-20 18:05:00,52.5,31.2,29.94,WSW,250,2.0,5.0,44,0.00,,,0.42,Wunderground v.1.15,2013-04-20 22:05:00,
2013-04-20 18:15:00,52.1,31.9,29.95,ESE,119,2.0,5.0,46,0.00,,,0.42,Wunderground v.1.15,2013-04-20 22:15:00,
2013-04-20 18:25:00,51.6,30.9,29.95,SSW,213,2.0,5.0,45,0.00,,,0.42,Wunderground v.1.15,2013-04-20 22:25:00,
2013-04-20 18:35:00,51.6,30.9,29.96,West,260,1.0,5.0,45,0.00,,,0.42,Wunderground v.1.15,2013-04-20 22:35:00,
2013-04-20 18:45:00,51.2,29.4,29.97,West,264,2.0,5.0,43,0.00,,,0.42,Wunderground v.1.15,2013-04-20 22:45:00,
2013-04-20 18:50:00,50.8,29.1,29.97,West,259,2.0,2.0,43,0.00,,,0.42,Wunderground v.1.15,2013-04-20 22:50:00,
2013-04-20 18:55:00,50.5,29.4,29.97,West,263,2.0,5.0,44,0.00,,,0.42,Wunderground v.1.15,2013-04-20 22:55:00,
2013-04-20 19:05:00,50.0,28.9,29.99,ENE,72,2.0,5.0,44,0.00,,,0.42,Wunderground v.1.15,2013-04-20 23:05:00,
2013-04-20 19:15:00,49.6,29.6,30.00,West,266,1.0,5.0,46,0.00,,,0.42,Wunderground v.1.15,2013-04-20 23:15:00,
2013-04-20 19:20:00,49.2,28.7,30.00,West,265,0.0,5.0,45,0.00,,,0.42,Wunderground v.1.15,2013-04-20 23:20:00,
2013-04-20 19:30:00,48.7,28.8,30.00,West,273,1.0,1.0,46,0.00,,,0.42,Wunderground v.1.15,2013-04-20 23:30:00,
2013-04-20 19:40:00,48.2,27.8,30.02,SSE,148,2.0,2.0,45,0.00,,,0.42,Wunderground v.1.15,2013-04-20 23:40:00,
2013-04-20 19:50:00,47.8,27.5,30.02,NE,43,1.0,5.0,45,0.00,,,0.42,Wunderground v.1.15,2013-04-20 23:50:00,